Terminal Aerodrome Forecast
Issued by NWS

Home | Current Version | Previous Version | Text Only | Print | Product List | Glossary On
Versions: 1 2 3 4 5 6 7 8 9 10 11 12 13
947
FTUS42 KTAE 272334
TAFDHN
TAF
KDHN 272334Z 2800/2824 25005KT P6SM SKC
     FM280800 23004KT 3SM BR SCT004 OVC007
     FM281300 26008KT P6SM SCT250=

USA.gov is the U.S. government's official web portal to all federal, state and local government web resources and services.